sensor_id;sensor_type;location;lat;lon;timestamp;pressure;altitude;pressure_sealevel;temperature;humidity
8140;BME280;4111;50.972;7.072;2023-12-29T00:00:54;100662.44;;;11.30;79.00
8140;BME280;4111;50.972;7.072;2023-12-29T00:03:21;100668.44;;;11.32;79.20
8140;BME280;4111;50.972;7.072;2023-12-29T00:05:47;100659.16;;;11.28;79.12
8140;BME280;4111;50.972;7.072;2023-12-29T00:08:14;100659.25;;;11.34;79.05
8140;BME280;4111;50.972;7.072;2023-12-29T00:10:40;100657.34;;;11.34;79.06
8140;BME280;4111;50.972;7.072;2023-12-29T00:13:07;100648.78;;;11.25;79.16
8140;BME280;4111;50.972;7.072;2023-12-29T00:15:33;100647.16;;;11.24;79.22
8140;BME280;4111;50.972;7.072;2023-12-29T00:18:00;100656.44;;;11.28;79.46
8140;BME280;4111;50.972;7.072;2023-12-29T00:20:27;100645.66;;;11.34;78.90
8140;BME280;4111;50.972;7.072;2023-12-29T00:23:06;100646.72;;;11.32;79.11
8140;BME280;4111;50.972;7.072;2023-12-29T00:25:36;100643.75;;;11.34;79.34
8140;BME280;4111;50.972;7.072;2023-12-29T00:28:03;100643.91;;;11.27;79.22
8140;BME280;4111;50.972;7.072;2023-12-29T00:30:31;100641.53;;;11.31;79.29
8140;BME280;4111;50.972;7.072;2023-12-29T00:33:17;100640.78;;;11.36;79.33
8140;BME280;4111;50.972;7.072;2023-12-29T00:35:44;100643.50;;;11.36;79.27
8140;BME280;4111;50.972;7.072;2023-12-29T00:38:10;100638.63;;;11.38;79.24
8140;BME280;4111;50.972;7.072;2023-12-29T00:40:36;100632.88;;;11.34;79.25
8140;BME280;4111;50.972;7.072;2023-12-29T00:43:03;100628.50;;;11.33;79.31
8140;BME280;4111;50.972;7.072;2023-12-29T00:45:30;100630.97;;;11.35;79.41
8140;BME280;4111;50.972;7.072;2023-12-29T00:47:59;100624.97;;;11.32;79.36
8140;BME280;4111;50.972;7.072;2023-12-29T00:50:26;100630.94;;;11.29;79.31
8140;BME280;4111;50.972;7.072;2023-12-29T00:52:52;100620.06;;;11.29;79.47
8140;BME280;4111;50.972;7.072;2023-12-29T00:55:19;100623.00;;;11.28;79.65
8140;BME280;4111;50.972;7.072;2023-12-29T00:57:45;100632.88;;;11.34;79.47
8140;BME280;4111;50.972;7.072;2023-12-29T01:00:12;100614.66;;;11.35;79.31
8140;BME280;4111;50.972;7.072;2023-12-29T01:02:39;100606.50;;;11.35;79.37
8140;BME280;4111;50.972;7.072;2023-12-29T01:05:06;100603.84;;;11.40;79.28
8140;BME280;4111;50.972;7.072;2023-12-29T01:07:33;100609.28;;;11.40;79.29
8140;BME280;4111;50.972;7.072;2023-12-29T01:09:59;100607.06;;;11.37;79.17
8140;BME280;4111;50.972;7.072;2023-12-29T01:12:25;100606.56;;;11.40;79.52
8140;BME280;4111;50.972;7.072;2023-12-29T01:14:52;100600.34;;;11.44;79.05
8140;BME280;4111;50.972;7.072;2023-12-29T01:17:19;100597.38;;;11.46;78.78
8140;BME280;4111;50.972;7.072;2023-12-29T01:19:45;100591.94;;;11.46;78.95
8140;BME280;4111;50.972;7.072;2023-12-29T01:22:12;100593.78;;;11.40;78.81
8140;BME280;4111;50.972;7.072;2023-12-29T01:24:38;100587.00;;;11.43;78.75
8140;BME280;4111;50.972;7.072;2023-12-29T01:27:11;100586.50;;;11.46;78.90
8140;BME280;4111;50.972;7.072;2023-12-29T01:29:38;100574.03;;;11.50;78.79
8140;BME280;4111;50.972;7.072;2023-12-29T01:32:06;100579.41;;;11.45;78.78
8140;BME280;4111;50.972;7.072;2023-12-29T01:34:34;100576.13;;;11.43;78.84
8140;BME280;4111;50.972;7.072;2023-12-29T01:37:02;100568.22;;;11.41;78.94
8140;BME280;4111;50.972;7.072;2023-12-29T01:39:29;100574.50;;;11.42;78.94
8140;BME280;4111;50.972;7.072;2023-12-29T01:41:56;100564.75;;;11.46;79.29
8140;BME280;4111;50.972;7.072;2023-12-29T01:44:23;100573.97;;;11.45;79.13
8140;BME280;4111;50.972;7.072;2023-12-29T01:46:51;100575.63;;;11.46;79.07
8140;BME280;4111;50.972;7.072;2023-12-29T01:49:21;100577.25;;;11.47;79.15
8140;BME280;4111;50.972;7.072;2023-12-29T01:51:54;100573.47;;;11.48;79.00
8140;BME280;4111;50.972;7.072;2023-12-29T01:54:23;100570.94;;;11.41;79.03
8140;BME280;4111;50.972;7.072;2023-12-29T01:56:51;100579.69;;;11.43;78.87
8140;BME280;4111;50.972;7.072;2023-12-29T01:59:21;100572.03;;;11.40;79.15
8140;BME280;4111;50.972;7.072;2023-12-29T02:01:53;100582.41;;;11.43;79.16
8140;BME280;4111;50.972;7.072;2023-12-29T02:04:26;100581.31;;;11.44;79.08
8140;BME280;4111;50.972;7.072;2023-12-29T02:06:54;100584.28;;;11.43;79.13
8140;BME280;4111;50.972;7.072;2023-12-29T02:09:21;100591.97;;;11.51;79.20
8140;BME280;4111;50.972;7.072;2023-12-29T02:11:48;100574.28;;;11.48;79.02
8140;BME280;4111;50.972;7.072;2023-12-29T02:14:16;100557.16;;;11.48;79.05
8140;BME280;4111;50.972;7.072;2023-12-29T02:16:57;100554.47;;;11.53;79.06
8140;BME280;4111;50.972;7.072;2023-12-29T02:21:57;100563.56;;;11.64;78.99
8140;BME280;4111;50.972;7.072;2023-12-29T02:24:24;100556.19;;;11.59;78.91
8140;BME280;4111;50.972;7.072;2023-12-29T02:26:56;100544.75;;;11.57;78.89
8140;BME280;4111;50.972;7.072;2023-12-29T02:29:24;100546.44;;;11.63;78.92
8140;BME280;4111;50.972;7.072;2023-12-29T02:31:54;100539.34;;;11.62;78.51
8140;BME280;4111;50.972;7.072;2023-12-29T02:34:26;100538.28;;;11.63;78.62
8140;BME280;4111;50.972;7.072;2023-12-29T02:36:56;100521.97;;;11.63;78.72
8140;BME280;4111;50.972;7.072;2023-12-29T02:39:22;100530.94;;;11.64;78.68
8140;BME280;4111;50.972;7.072;2023-12-29T02:41:49;100519.25;;;11.63;78.75
8140;BME280;4111;50.972;7.072;2023-12-29T02:44:16;100528.00;;;11.70;78.61
8140;BME280;4111;50.972;7.072;2023-12-29T02:46:42;100528.00;;;11.70;78.87
8140;BME280;4111;50.972;7.072;2023-12-29T02:49:08;100536.16;;;11.70;78.28
8140;BME280;4111;50.972;7.072;2023-12-29T02:51:39;100526.38;;;11.69;78.19
8140;BME280;4111;50.972;7.072;2023-12-29T02:54:06;100523.66;;;11.69;78.08
8140;BME280;4111;50.972;7.072;2023-12-29T02:56:33;100523.91;;;11.68;78.16
8140;BME280;4111;50.972;7.072;2023-12-29T02:59:01;100531.00;;;11.69;78.27
8140;BME280;4111;50.972;7.072;2023-12-29T03:01:27;100528.03;;;11.76;78.39
8140;BME280;4111;50.972;7.072;2023-12-29T03:03:55;100517.66;;;11.73;78.24
8140;BME280;4111;50.972;7.072;2023-12-29T03:06:22;100522.31;;;11.72;78.26
8140;BME280;4111;50.972;7.072;2023-12-29T03:08:49;100522.34;;;11.77;78.34
8140;BME280;4111;50.972;7.072;2023-12-29T03:11:15;100516.59;;;11.74;78.09
8140;BME280;4111;50.972;7.072;2023-12-29T03:13:42;100523.66;;;11.75;78.33
8140;BME280;4111;50.972;7.072;2023-12-29T03:16:09;100521.22;;;11.73;78.12
8140;BME280;4111;50.972;7.072;2023-12-29T03:18:36;100518.78;;;11.77;78.19
8140;BME280;4111;50.972;7.072;2023-12-29T03:21:06;100524.53;;;11.80;78.05
8140;BME280;4111;50.972;7.072;2023-12-29T03:23:34;100524.84;;;11.84;77.92
8140;BME280;4111;50.972;7.072;2023-12-29T03:26:01;100524.59;;;11.85;77.81
8140;BME280;4111;50.972;7.072;2023-12-29T03:28:27;100516.69;;;11.84;77.87
8140;BME280;4111;50.972;7.072;2023-12-29T03:30:54;100519.41;;;11.84;77.80
8140;BME280;4111;50.972;7.072;2023-12-29T03:33:20;100522.13;;;11.84;77.99
8140;BME280;4111;50.972;7.072;2023-12-29T03:35:47;100523.00;;;11.89;78.00
8140;BME280;4111;50.972;7.072;2023-12-29T03:38:13;100517.31;;;11.91;77.94
8140;BME280;4111;50.972;7.072;2023-12-29T03:40:40;100532.03;;;11.95;77.88
8140;BME280;4111;50.972;7.072;2023-12-29T03:43:07;100517.34;;;11.96;77.63
8140;BME280;4111;50.972;7.072;2023-12-29T03:45:33;100506.72;;;11.95;77.88
8140;BME280;4111;50.972;7.072;2023-12-29T03:48:00;100511.34;;;11.94;77.81
8140;BME280;4111;50.972;7.072;2023-12-29T03:50:27;100506.19;;;11.98;77.60
8140;BME280;4111;50.972;7.072;2023-12-29T03:52:53;100492.84;;;11.96;77.94
8140;BME280;4111;50.972;7.072;2023-12-29T03:55:20;100509.72;;;11.98;77.97
8140;BME280;4111;50.972;7.072;2023-12-29T03:57:46;100510.28;;;12.00;77.92
8140;BME280;4111;50.972;7.072;2023-12-29T04:00:14;100523.63;;;12.02;78.12
8140;BME280;4111;50.972;7.072;2023-12-29T04:02:40;100513.28;;;11.99;78.18
8140;BME280;4111;50.972;7.072;2023-12-29T04:05:09;100502.41;;;11.99;78.41
8140;BME280;4111;50.972;7.072;2023-12-29T04:07:39;100489.06;;;12.02;78.37
8140;BME280;4111;50.972;7.072;2023-12-29T04:10:06;100501.88;;;12.02;78.32
8140;BME280;4111;50.972;7.072;2023-12-29T04:12:32;100504.84;;;12.00;78.48
8140;BME280;4111;50.972;7.072;2023-12-29T04:14:59;100505.69;;;12.01;78.61
8140;BME280;4111;50.972;7.072;2023-12-29T04:17:25;100495.63;;;12.01;78.41
8140;BME280;4111;50.972;7.072;2023-12-29T04:19:52;100498.09;;;12.03;78.56
8140;BME280;4111;50.972;7.072;2023-12-29T04:22:19;100477.63;;;12.00;78.69
8140;BME280;4111;50.972;7.072;2023-12-29T04:24:45;100475.47;;;12.02;78.49
8140;BME280;4111;50.972;7.072;2023-12-29T04:27:13;100480.66;;;11.99;78.58
8140;BME280;4111;50.972;7.072;2023-12-29T04:29:39;100480.91;;;12.02;78.48
8140;BME280;4111;50.972;7.072;2023-12-29T04:32:06;100478.50;;;12.06;78.55
8140;BME280;4111;50.972;7.072;2023-12-29T04:34:33;100481.47;;;11.99;78.58
8140;BME280;4111;50.972;7.072;2023-12-29T04:36:59;100473.03;;;12.01;79.01
8140;BME280;4111;50.972;7.072;2023-12-29T04:39:26;100475.47;;;12.02;78.63
8140;BME280;4111;50.972;7.072;2023-12-29T04:41:52;100482.03;;;12.06;78.72
8140;BME280;4111;50.972;7.072;2023-12-29T04:44:19;100487.75;;;12.05;78.97
8140;BME280;4111;50.972;7.072;2023-12-29T04:46:45;100494.00;;;12.05;78.69
8140;BME280;4111;50.972;7.072;2023-12-29T04:49:12;100497.53;;;12.06;78.77
8140;BME280;4111;50.972;7.072;2023-12-29T04:51:38;100501.06;;;12.01;78.96
8140;BME280;4111;50.972;7.072;2023-12-29T04:54:05;100509.53;;;12.05;78.93
8140;BME280;4111;50.972;7.072;2023-12-29T04:56:32;100510.84;;;12.02;79.16
8140;BME280;4111;50.972;7.072;2023-12-29T04:58:58;100501.56;;;11.98;79.41
8140;BME280;4111;50.972;7.072;2023-12-29T05:01:26;100513.56;;;12.02;79.36
8140;BME280;4111;50.972;7.072;2023-12-29T05:03:52;100521.19;;;12.00;79.38
8140;BME280;4111;50.972;7.072;2023-12-29T05:06:19;100520.38;;;12.00;79.65
8140;BME280;4111;50.972;7.072;2023-12-29T05:08:45;100518.50;;;12.05;79.44
8140;BME280;4111;50.972;7.072;2023-12-29T05:11:12;100533.19;;;12.04;79.40
8140;BME280;4111;50.972;7.072;2023-12-29T05:13:38;100519.84;;;12.03;79.70
8140;BME280;4111;50.972;7.072;2023-12-29T05:16:05;100529.91;;;12.02;79.53
8140;BME280;4111;50.972;7.072;2023-12-29T05:18:32;100523.94;;;12.05;79.80
8140;BME280;4111;50.972;7.072;2023-12-29T05:20:59;100519.06;;;12.07;79.64
8140;BME280;4111;50.972;7.072;2023-12-29T05:23:25;100520.13;;;12.06;79.56
8140;BME280;4111;50.972;7.072;2023-12-29T05:25:52;100513.94;;;12.16;79.62
8140;BME280;4111;50.972;7.072;2023-12-29T05:28:19;100516.84;;;12.04;79.47
8140;BME280;4111;50.972;7.072;2023-12-29T05:30:45;100523.38;;;12.03;79.45
8140;BME280;4111;50.972;7.072;2023-12-29T05:33:12;100518.50;;;12.05;79.93
8140;BME280;4111;50.972;7.072;2023-12-29T05:35:38;100516.59;;;12.06;79.76
8140;BME280;4111;50.972;7.072;2023-12-29T05:38:05;100519.00;;;12.02;79.68
8140;BME280;4111;50.972;7.072;2023-12-29T05:40:31;100517.66;;;12.00;79.54
8140;BME280;4111;50.972;7.072;2023-12-29T05:42:58;100513.56;;;11.97;79.70
8140;BME280;4111;50.972;7.072;2023-12-29T05:45:24;100520.06;;;11.96;79.40
8140;BME280;4111;50.972;7.072;2023-12-29T05:47:50;100528.78;;;11.98;79.46
8140;BME280;4111;50.972;7.072;2023-12-29T05:50:17;100526.34;;;11.97;78.92
8140;BME280;4111;50.972;7.072;2023-12-29T05:52:44;100536.69;;;12.00;78.86
8140;BME280;4111;50.972;7.072;2023-12-29T05:55:11;100528.78;;;11.98;78.76
8140;BME280;4111;50.972;7.072;2023-12-29T05:57:37;100529.88;;;11.97;79.14
8140;BME280;4111;50.972;7.072;2023-12-29T06:00:04;100518.19;;;11.97;78.81
8140;BME280;4111;50.972;7.072;2023-12-29T06:02:31;100513.81;;;11.96;78.81
8140;BME280;4111;50.972;7.072;2023-12-29T06:04:57;100515.72;;;11.95;78.77
8140;BME280;4111;50.972;7.072;2023-12-29T06:07:23;100516.28;;;11.97;78.88
8140;BME280;4111;50.972;7.072;2023-12-29T06:09:50;100518.34;;;11.85;78.87
8140;BME280;4111;50.972;7.072;2023-12-29T06:12:16;100523.78;;;11.85;78.71
8140;BME280;4111;50.972;7.072;2023-12-29T06:14:43;100519.97;;;11.86;79.17
8140;BME280;4111;50.972;7.072;2023-12-29T06:17:09;100524.06;;;11.88;79.08
8140;BME280;4111;50.972;7.072;2023-12-29T06:19:36;100528.47;;;11.89;78.79
8140;BME280;4111;50.972;7.072;2023-12-29T06:22:03;100517.78;;;11.88;78.81
8140;BME280;4111;50.972;7.072;2023-12-29T06:24:29;100518.91;;;11.87;79.09
8140;BME280;4111;50.972;7.072;2023-12-29T06:26:56;100518.13;;;11.92;79.23
8140;BME280;4111;50.972;7.072;2023-12-29T06:29:22;100520.78;;;11.86;79.17
8140;BME280;4111;50.972;7.072;2023-12-29T06:31:49;100530.84;;;11.86;79.08
8140;BME280;4111;50.972;7.072;2023-12-29T06:34:15;100518.84;;;11.82;79.10
8140;BME280;4111;50.972;7.072;2023-12-29T06:36:42;100529.16;;;11.80;79.12
8140;BME280;4111;50.972;7.072;2023-12-29T06:39:09;100527.06;;;11.87;78.96
8140;BME280;4111;50.972;7.072;2023-12-29T06:41:35;100520.50;;;11.83;79.02
8140;BME280;4111;50.972;7.072;2023-12-29T06:47:44;100523.97;;;11.78;78.86
8140;BME280;4111;50.972;7.072;2023-12-29T06:50:11;100523.22;;;11.83;79.14
8140;BME280;4111;50.972;7.072;2023-12-29T06:52:40;100530.28;;;11.84;79.01
8140;BME280;4111;50.972;7.072;2023-12-29T06:55:06;100510.72;;;11.87;78.70
8140;BME280;4111;50.972;7.072;2023-12-29T06:57:34;100507.44;;;11.85;78.90
8140;BME280;4111;50.972;7.072;2023-12-29T07:00:01;100519.66;;;11.82;78.67
8140;BME280;4111;50.972;7.072;2023-12-29T07:02:27;100511.25;;;11.84;78.60
8140;BME280;4111;50.972;7.072;2023-12-29T07:04:54;100506.91;;;11.88;78.83
8140;BME280;4111;50.972;7.072;2023-12-29T07:07:20;100499.00;;;11.86;78.51
8140;BME280;4111;50.972;7.072;2023-12-29T07:09:47;100499.28;;;11.85;78.26
8140;BME280;4111;50.972;7.072;2023-12-29T07:12:13;100488.41;;;11.85;78.51
8140;BME280;4111;50.972;7.072;2023-12-29T07:14:41;100490.56;;;11.83;78.56
8140;BME280;4111;50.972;7.072;2023-12-29T07:17:07;100491.13;;;11.85;78.85
8140;BME280;4111;50.972;7.072;2023-12-29T07:19:33;100498.28;;;11.91;79.01
8140;BME280;4111;50.972;7.072;2023-12-29T07:22:04;100489.47;;;11.84;78.64
8140;BME280;4111;50.972;7.072;2023-12-29T07:24:32;100493.28;;;11.83;78.72
8140;BME280;4111;50.972;7.072;2023-12-29T07:26:59;100481.56;;;11.82;78.80
8140;BME280;4111;50.972;7.072;2023-12-29T07:29:25;100485.25;;;11.98;79.83
8140;BME280;4111;50.972;7.072;2023-12-29T07:31:52;100487.38;;;11.91;79.18
8140;BME280;4111;50.972;7.072;2023-12-29T07:34:20;100480.66;;;11.99;79.31
8140;BME280;4111;50.972;7.072;2023-12-29T07:36:47;100479.28;;;12.01;79.26
8140;BME280;4111;50.972;7.072;2023-12-29T07:39:13;100473.03;;;12.01;79.25
8140;BME280;4111;50.972;7.072;2023-12-29T07:41:41;100477.13;;;12.03;79.65
8140;BME280;4111;50.972;7.072;2023-12-29T07:44:11;100471.94;;;11.97;79.68
8140;BME280;4111;50.972;7.072;2023-12-29T07:46:39;100480.66;;;11.99;79.95
8140;BME280;4111;50.972;7.072;2023-12-29T07:49:06;100483.56;;;11.92;80.41
8140;BME280;4111;50.972;7.072;2023-12-29T07:51:33;100473.50;;;11.93;80.80
8140;BME280;4111;50.972;7.072;2023-12-29T07:54:01;100473.97;;;11.84;80.81
8140;BME280;4111;50.972;7.072;2023-12-29T07:56:27;100469.88;;;11.82;81.23
8140;BME280;4111;50.972;7.072;2023-12-29T07:58:54;100475.00;;;11.73;81.73
8140;BME280;4111;50.972;7.072;2023-12-29T08:01:20;100474.19;;;11.78;81.82
8140;BME280;4111;50.972;7.072;2023-12-29T08:03:47;100471.22;;;11.79;82.69
8140;BME280;4111;50.972;7.072;2023-12-29T08:06:13;100477.47;;;11.80;83.48
8140;BME280;4111;50.972;7.072;2023-12-29T08:08:40;100477.41;;;11.69;83.92
8140;BME280;4111;50.972;7.072;2023-12-29T08:11:13;100482.25;;;11.62;84.62
8140;BME280;4111;50.972;7.072;2023-12-29T08:13:41;100480.31;;;11.58;86.07
8140;BME280;4111;50.972;7.072;2023-12-29T08:16:07;100492.25;;;11.57;86.26
8140;BME280;4111;50.972;7.072;2023-12-29T08:18:34;100488.63;;;11.46;86.78
8140;BME280;4111;50.972;7.072;2023-12-29T08:21:02;100501.06;;;11.37;87.96
8140;BME280;4111;50.972;7.072;2023-12-29T08:23:28;100507.59;;;11.36;88.47
8140;BME280;4111;50.972;7.072;2023-12-29T08:25:57;100518.06;;;11.27;89.26
8140;BME280;4111;50.972;7.072;2023-12-29T08:28:24;100519.72;;;11.28;90.06
8140;BME280;4111;50.972;7.072;2023-12-29T08:30:51;100515.09;;;11.28;90.80
8140;BME280;4111;50.972;7.072;2023-12-29T08:33:17;100517.19;;;11.21;91.14
8140;BME280;4111;50.972;7.072;2023-12-29T08:35:44;100516.13;;;11.22;92.23
8140;BME280;4111;50.972;7.072;2023-12-29T08:38:12;100519.81;;;11.11;92.96
8140;BME280;4111;50.972;7.072;2023-12-29T08:40:38;100505.34;;;11.05;94.10
8140;BME280;4111;50.972;7.072;2023-12-29T08:43:05;100510.47;;;11.02;94.47
8140;BME280;4111;50.972;7.072;2023-12-29T08:45:31;100516.44;;;10.99;94.97
8140;BME280;4111;50.972;7.072;2023-12-29T08:47:58;100513.66;;;10.94;95.78
8140;BME280;4111;50.972;7.072;2023-12-29T08:50:25;100515.31;;;10.95;96.30
8140;BME280;4111;50.972;7.072;2023-12-29T08:52:51;100521.19;;;10.86;97.04
8140;BME280;4111;50.972;7.072;2023-12-29T08:55:18;100512.72;;;10.83;97.34
8140;BME280;4111;50.972;7.072;2023-12-29T08:57:44;100513.53;;;10.83;97.66
8140;BME280;4111;50.972;7.072;2023-12-29T09:00:11;100518.72;;;10.85;98.12
8140;BME280;4111;50.972;7.072;2023-12-29T09:02:37;100522.31;;;10.90;98.97
8140;BME280;4111;50.972;7.072;2023-12-29T09:05:04;100514.16;;;10.90;99.13
8140;BME280;4111;50.972;7.072;2023-12-29T09:07:31;100512.03;;;10.93;99.50
8140;BME280;4111;50.972;7.072;2023-12-29T09:09:58;100513.53;;;10.83;100.00
8140;BME280;4111;50.972;7.072;2023-12-29T09:12:25;100509.22;;;10.87;100.00
8140;BME280;4111;50.972;7.072;2023-12-29T09:14:51;100513.94;;;10.92;100.00
8140;BME280;4111;50.972;7.072;2023-12-29T09:17:18;100511.44;;;10.90;100.00
8140;BME280;4111;50.972;7.072;2023-12-29T09:19:44;100509.22;;;10.87;100.00
8140;BME280;4111;50.972;7.072;2023-12-29T09:22:16;100510.88;;;10.88;100.00
8140;BME280;4111;50.972;7.072;2023-12-29T09:24:43;100517.44;;;10.93;100.00
8140;BME280;4111;50.972;7.072;2023-12-29T09:27:10;100531.06;;;10.98;100.00
8140;BME280;4111;50.972;7.072;2023-12-29T09:29:36;100528.88;;;10.95;100.00
8140;BME280;4111;50.972;7.072;2023-12-29T09:32:03;100529.78;;;11.00;100.00
8140;BME280;4111;50.972;7.072;2023-12-29T09:34:30;100532.53;;;11.05;100.00
8140;BME280;4111;50.972;7.072;2023-12-29T09:36:56;100530.56;;;11.01;100.00
8140;BME280;4111;50.972;7.072;2023-12-29T09:39:23;100530.66;;;11.06;100.00
8140;BME280;4111;50.972;7.072;2023-12-29T09:41:52;100539.38;;;11.08;100.00
8140;BME280;4111;50.972;7.072;2023-12-29T09:44:21;100539.94;;;11.10;100.00
8140;BME280;4111;50.972;7.072;2023-12-29T09:46:50;100548.34;;;11.08;100.00
8140;BME280;4111;50.972;7.072;2023-12-29T09:49:18;100526.78;;;11.02;100.00
8140;BME280;4111;50.972;7.072;2023-12-29T09:51:45;100532.19;;;11.02;100.00
8140;BME280;4111;50.972;7.072;2023-12-29T09:54:13;100538.81;;;11.06;100.00
8140;BME280;4111;50.972;7.072;2023-12-29T09:56:40;100534.13;;;11.01;100.00
8140;BME280;4111;50.972;7.072;2023-12-29T09:59:09;100543.66;;;11.04;100.00
8140;BME280;4111;50.972;7.072;2023-12-29T10:01:37;100543.66;;;11.04;100.00
8140;BME280;4111;50.972;7.072;2023-12-29T10:04:03;100537.63;;;11.02;100.00
8140;BME280;4111;50.972;7.072;2023-12-29T10:06:34;100527.94;;;11.06;100.00
8140;BME280;4111;50.972;7.072;2023-12-29T10:09:03;100534.19;;;11.06;100.00
8140;BME280;4111;50.972;7.072;2023-12-29T10:11:34;100522.22;;;11.07;100.00
8140;BME280;4111;50.972;7.072;2023-12-29T10:14:05;100530.56;;;11.01;100.00
8140;BME280;4111;50.972;7.072;2023-12-29T10:16:38;100529.50;;;11.02;100.00
8140;BME280;4111;50.972;7.072;2023-12-29T10:22:17;100523.25;;;11.01;100.00
8140;BME280;4111;50.972;7.072;2023-12-29T10:24:45;100527.63;;;11.02;100.00
8140;BME280;4111;50.972;7.072;2023-12-29T10:27:13;100521.16;;;11.08;100.00
8140;BME280;4111;50.972;7.072;2023-12-29T10:29:39;100517.41;;;11.15;100.00
8140;BME280;4111;50.972;7.072;2023-12-29T10:32:06;100517.66;;;11.13;100.00
8140;BME280;4111;50.972;7.072;2023-12-29T10:34:33;100518.78;;;11.17;100.00
8140;BME280;4111;50.972;7.072;2023-12-29T10:37:00;100522.13;;;11.24;100.00
8140;BME280;4111;50.972;7.072;2023-12-29T10:39:35;100513.28;;;11.34;100.00
8140;BME280;4111;50.972;7.072;2023-12-29T10:42:04;100520.63;;;11.39;100.00
8140;BME280;4111;50.972;7.072;2023-12-29T10:44:35;100524.13;;;11.34;100.00
8140;BME280;4111;50.972;7.072;2023-12-29T10:47:11;100522.53;;;11.38;100.00
8140;BME280;4111;50.972;7.072;2023-12-29T10:49:39;100520.06;;;11.37;100.00
8140;BME280;4111;50.972;7.072;2023-12-29T10:52:14;100521.25;;;11.46;100.00
8140;BME280;4111;50.972;7.072;2023-12-29T10:54:44;100520.16;;;11.47;100.00
8140;BME280;4111;50.972;7.072;2023-12-29T10:57:12;100534.28;;;11.44;100.00
8140;BME280;4111;50.972;7.072;2023-12-29T10:59:39;100518.28;;;11.47;99.95
8140;BME280;4111;50.972;7.072;2023-12-29T11:02:06;100510.69;;;11.49;99.76
8140;BME280;4111;50.972;7.072;2023-12-29T11:04:34;100510.69;;;11.49;99.20
8140;BME280;4111;50.972;7.072;2023-12-29T11:07:01;100513.13;;;11.51;98.53
8140;BME280;4111;50.972;7.072;2023-12-29T11:09:29;100505.59;;;11.58;98.30
8140;BME280;4111;50.972;7.072;2023-12-29T11:12:03;100506.97;;;11.61;98.06
8140;BME280;4111;50.972;7.072;2023-12-29T11:14:30;100508.94;;;11.65;97.63
8140;BME280;4111;50.972;7.072;2023-12-29T11:16:57;100501.06;;;11.69;97.22
8140;BME280;4111;50.972;7.072;2023-12-29T11:19:27;100510.84;;;11.70;96.72
8140;BME280;4111;50.972;7.072;2023-12-29T11:21:55;100513.88;;;11.74;96.44
8140;BME280;4111;50.972;7.072;2023-12-29T11:24:23;100512.84;;;11.80;95.80
8140;BME280;4111;50.972;7.072;2023-12-29T11:27:04;100507.41;;;11.80;95.78
8140;BME280;4111;50.972;7.072;2023-12-29T11:29:34;100498.44;;;11.84;95.63
8140;BME280;4111;50.972;7.072;2023-12-29T11:32:03;100503.44;;;11.93;95.49
8140;BME280;4111;50.972;7.072;2023-12-29T11:34:40;100490.97;;;11.97;95.15
8140;BME280;4111;50.972;7.072;2023-12-29T11:37:21;100504.03;;;12.00;95.15
8140;BME280;4111;50.972;7.072;2023-12-29T11:40:00;100499.97;;;12.02;94.40
8140;BME280;4111;50.972;7.072;2023-12-29T11:42:35;100489.06;;;12.02;93.98
8140;BME280;4111;50.972;7.072;2023-12-29T11:45:24;100498.34;;;12.06;93.85
8140;BME280;4111;50.972;7.072;2023-12-29T11:47:51;100491.28;;;12.05;93.37
8140;BME280;4111;50.972;7.072;2023-12-29T11:50:31;100490.78;;;12.14;93.25
8140;BME280;4111;50.972;7.072;2023-12-29T11:52:58;100484.28;;;12.15;93.09
8140;BME280;4111;50.972;7.072;2023-12-29T11:55:28;100489.19;;;12.18;93.20
8140;BME280;4111;50.972;7.072;2023-12-29T11:57:56;100477.53;;;12.22;92.63
8140;BME280;4111;50.972;7.072;2023-12-29T12:00:42;100473.44;;;12.25;92.33
8140;BME280;4111;50.972;7.072;2023-12-29T12:03:17;100476.72;;;12.27;92.18
8140;BME280;4111;50.972;7.072;2023-12-29T12:05:45;100472.91;;;12.28;91.70
8140;BME280;4111;50.972;7.072;2023-12-29T12:08:26;100477.28;;;12.29;90.78
8140;BME280;4111;50.972;7.072;2023-12-29T12:10:55;100472.38;;;12.31;91.15
8140;BME280;4111;50.972;7.072;2023-12-29T12:13:44;100475.13;;;12.36;91.04
8140;BME280;4111;50.972;7.072;2023-12-29T12:19:09;100479.47;;;12.37;90.48
8140;BME280;4111;50.972;7.072;2023-12-29T12:21:36;100475.16;;;12.41;90.26
8140;BME280;4111;50.972;7.072;2023-12-29T12:24:04;100468.09;;;12.45;90.29
8140;BME280;4111;50.972;7.072;2023-12-29T12:26:31;100466.75;;;12.48;90.40
8140;BME280;4111;50.972;7.072;2023-12-29T12:28:58;100469.19;;;12.49;90.16
8140;BME280;4111;50.972;7.072;2023-12-29T12:31:25;100479.53;;;12.47;90.08
8140;BME280;4111;50.972;7.072;2023-12-29T12:33:56;100460.72;;;12.41;90.06
8140;BME280;4111;50.972;7.072;2023-12-29T12:36:23;100464.81;;;12.38;90.02
8140;BME280;4111;50.972;7.072;2023-12-29T12:38:55;100463.97;;;12.38;90.18
8140;BME280;4111;50.972;7.072;2023-12-29T12:41:22;100452.28;;;12.42;89.98
8140;BME280;4111;50.972;7.072;2023-12-29T12:46:22;100443.06;;;12.48;89.06
8140;BME280;4111;50.972;7.072;2023-12-29T12:48:51;100444.41;;;12.51;89.38
8140;BME280;4111;50.972;7.072;2023-12-29T12:51:19;100434.88;;;12.48;88.51
8140;BME280;4111;50.972;7.072;2023-12-29T12:53:47;100441.69;;;12.51;88.22
8140;BME280;4111;50.972;7.072;2023-12-29T12:56:16;100432.44;;;12.57;88.08
8140;BME280;4111;50.972;7.072;2023-12-29T12:58:43;100428.94;;;12.62;88.29
8140;BME280;4111;50.972;7.072;2023-12-29T13:01:10;100442.28;;;12.63;88.22
8140;BME280;4111;50.972;7.072;2023-12-29T13:03:38;100446.38;;;12.61;87.65
8140;BME280;4111;50.972;7.072;2023-12-29T13:06:05;100441.72;;;12.61;87.45
8140;BME280;4111;50.972;7.072;2023-12-29T13:08:33;100445.28;;;12.62;88.00
8140;BME280;4111;50.972;7.072;2023-12-29T13:11:08;100445.56;;;12.65;88.22
8140;BME280;4111;50.972;7.072;2023-12-29T13:13:39;100440.94;;;12.66;88.15
8140;BME280;4111;50.972;7.072;2023-12-29T13:16:06;100440.94;;;12.66;87.82
8140;BME280;4111;50.972;7.072;2023-12-29T13:18:33;100448.28;;;12.60;87.46
8140;BME280;4111;50.972;7.072;2023-12-29T13:21:03;100452.38;;;12.63;87.12
8140;BME280;4111;50.972;7.072;2023-12-29T13:23:33;100436.56;;;12.65;86.92
8140;BME280;4111;50.972;7.072;2023-12-29T13:26:05;100432.47;;;12.67;86.64
8140;BME280;4111;50.972;7.072;2023-12-29T13:28:34;100435.50;;;12.66;86.50